sensor_id;sensor_type;location;lat;lon;timestamp;P1;durP1;ratioP1;P2;durP2;ratioP2
30301;SDS011;17111;52.130;5.028;2023-04-24T00:00:59;7.70;;;5.00;;
30301;SDS011;17111;52.130;5.028;2023-04-24T00:03:27;6.85;;;4.85;;
30301;SDS011;17111;52.130;5.028;2023-04-24T00:05:54;7.22;;;4.47;;
30301;SDS011;17111;52.130;5.028;2023-04-24T00:08:21;7.00;;;4.55;;
30301;SDS011;17111;52.130;5.028;2023-04-24T00:10:48;6.65;;;4.72;;
30301;SDS011;17111;52.130;5.028;2023-04-24T00:13:15;7.40;;;4.07;;
30301;SDS011;17111;52.130;5.028;2023-04-24T00:15:41;8.55;;;4.65;;
30301;SDS011;17111;52.130;5.028;2023-04-24T00:18:09;6.35;;;4.05;;
30301;SDS011;17111;52.130;5.028;2023-04-24T00:20:35;7.47;;;4.78;;
30301;SDS011;17111;52.130;5.028;2023-04-24T00:23:02;6.13;;;4.07;;
30301;SDS011;17111;52.130;5.028;2023-04-24T00:25:28;6.28;;;3.90;;
30301;SDS011;17111;52.130;5.028;2023-04-24T00:27:55;5.55;;;3.78;;
30301;SDS011;17111;52.130;5.028;2023-04-24T00:30:22;6.57;;;4.28;;
30301;SDS011;17111;52.130;5.028;2023-04-24T00:32:48;6.13;;;4.28;;
30301;SDS011;17111;52.130;5.028;2023-04-24T00:35:15;6.28;;;4.00;;
30301;SDS011;17111;52.130;5.028;2023-04-24T00:37:42;6.15;;;4.07;;
30301;SDS011;17111;52.130;5.028;2023-04-24T00:40:08;5.35;;;3.80;;
30301;SDS011;17111;52.130;5.028;2023-04-24T00:42:35;6.50;;;4.32;;
30301;SDS011;17111;52.130;5.028;2023-04-24T00:45:02;5.75;;;3.70;;
30301;SDS011;17111;52.130;5.028;2023-04-24T00:47:30;5.95;;;3.80;;
30301;SDS011;17111;52.130;5.028;2023-04-24T00:49:57;6.70;;;4.05;;
30301;SDS011;17111;52.130;5.028;2023-04-24T00:52:24;5.22;;;3.53;;
30301;SDS011;17111;52.130;5.028;2023-04-24T00:54:51;5.68;;;3.75;;
30301;SDS011;17111;52.130;5.028;2023-04-24T00:57:18;5.60;;;3.20;;
30301;SDS011;17111;52.130;5.028;2023-04-24T00:59:44;6.35;;;3.40;;
30301;SDS011;17111;52.130;5.028;2023-04-24T01:02:12;6.22;;;3.15;;
30301;SDS011;17111;52.130;5.028;2023-04-24T01:04:39;5.57;;;3.35;;
30301;SDS011;17111;52.130;5.028;2023-04-24T01:07:06;5.53;;;3.38;;
30301;SDS011;17111;52.130;5.028;2023-04-24T01:09:38;4.65;;;3.20;;
30301;SDS011;17111;52.130;5.028;2023-04-24T01:12:08;4.80;;;3.20;;
30301;SDS011;17111;52.130;5.028;2023-04-24T01:14:36;5.10;;;3.17;;
30301;SDS011;17111;52.130;5.028;2023-04-24T01:17:02;4.90;;;2.95;;
30301;SDS011;17111;52.130;5.028;2023-04-24T01:19:29;4.53;;;3.17;;
30301;SDS011;17111;52.130;5.028;2023-04-24T01:21:56;5.28;;;3.40;;
30301;SDS011;17111;52.130;5.028;2023-04-24T01:24:25;5.18;;;3.53;;
30301;SDS011;17111;52.130;5.028;2023-04-24T01:26:52;4.85;;;3.08;;
30301;SDS011;17111;52.130;5.028;2023-04-24T01:29:18;4.30;;;2.70;;
30301;SDS011;17111;52.130;5.028;2023-04-24T01:31:45;4.00;;;2.83;;
30301;SDS011;17111;52.130;5.028;2023-04-24T01:34:12;5.05;;;3.00;;
30301;SDS011;17111;52.130;5.028;2023-04-24T01:36:39;4.53;;;3.00;;
30301;SDS011;17111;52.130;5.028;2023-04-24T01:39:07;6.53;;;3.22;;
30301;SDS011;17111;52.130;5.028;2023-04-24T01:41:34;4.28;;;2.90;;
30301;SDS011;17111;52.130;5.028;2023-04-24T01:44:01;4.82;;;2.90;;
30301;SDS011;17111;52.130;5.028;2023-04-24T01:46:28;4.15;;;2.88;;
30301;SDS011;17111;52.130;5.028;2023-04-24T01:48:55;4.50;;;3.00;;
30301;SDS011;17111;52.130;5.028;2023-04-24T01:51:22;5.18;;;3.05;;
30301;SDS011;17111;52.130;5.028;2023-04-24T01:53:48;3.92;;;2.30;;
30301;SDS011;17111;52.130;5.028;2023-04-24T01:56:15;4.05;;;2.83;;
30301;SDS011;17111;52.130;5.028;2023-04-24T01:58:42;3.70;;;2.30;;
30301;SDS011;17111;52.130;5.028;2023-04-24T02:01:10;3.50;;;2.42;;
30301;SDS011;17111;52.130;5.028;2023-04-24T02:03:43;4.00;;;2.63;;
30301;SDS011;17111;52.130;5.028;2023-04-24T02:06:10;5.38;;;3.17;;
30301;SDS011;17111;52.130;5.028;2023-04-24T02:08:37;3.75;;;2.63;;
30301;SDS011;17111;52.130;5.028;2023-04-24T02:11:03;4.72;;;2.60;;
30301;SDS011;17111;52.130;5.028;2023-04-24T02:13:30;3.67;;;2.70;;
30301;SDS011;17111;52.130;5.028;2023-04-24T02:16:00;3.95;;;2.72;;
30301;SDS011;17111;52.130;5.028;2023-04-24T02:18:27;4.45;;;2.80;;
30301;SDS011;17111;52.130;5.028;2023-04-24T02:20:53;3.78;;;2.40;;
30301;SDS011;17111;52.130;5.028;2023-04-24T02:23:20;4.30;;;2.90;;
30301;SDS011;17111;52.130;5.028;2023-04-24T02:25:46;4.22;;;2.28;;
30301;SDS011;17111;52.130;5.028;2023-04-24T02:28:13;2.85;;;1.95;;
30301;SDS011;17111;52.130;5.028;2023-04-24T02:30:40;2.67;;;2.22;;
30301;SDS011;17111;52.130;5.028;2023-04-24T02:33:06;3.80;;;2.33;;
30301;SDS011;17111;52.130;5.028;2023-04-24T02:35:33;4.03;;;2.60;;
30301;SDS011;17111;52.130;5.028;2023-04-24T02:37:59;3.47;;;2.22;;
30301;SDS011;17111;52.130;5.028;2023-04-24T02:40:26;3.03;;;2.35;;
30301;SDS011;17111;52.130;5.028;2023-04-24T02:42:52;3.28;;;2.10;;
30301;SDS011;17111;52.130;5.028;2023-04-24T02:45:19;3.40;;;2.22;;
30301;SDS011;17111;52.130;5.028;2023-04-24T02:47:46;3.20;;;2.30;;
30301;SDS011;17111;52.130;5.028;2023-04-24T02:50:12;3.92;;;2.40;;
30301;SDS011;17111;52.130;5.028;2023-04-24T02:52:39;2.47;;;1.75;;
30301;SDS011;17111;52.130;5.028;2023-04-24T02:55:05;3.28;;;2.28;;
30301;SDS011;17111;52.130;5.028;2023-04-24T02:57:34;4.30;;;2.00;;
30301;SDS011;17111;52.130;5.028;2023-04-24T03:00:00;2.38;;;1.70;;
30301;SDS011;17111;52.130;5.028;2023-04-24T03:02:27;3.30;;;2.13;;
30301;SDS011;17111;52.130;5.028;2023-04-24T03:04:54;3.28;;;2.05;;
30301;SDS011;17111;52.130;5.028;2023-04-24T03:07:21;3.13;;;1.88;;
30301;SDS011;17111;52.130;5.028;2023-04-24T03:09:47;2.95;;;2.03;;
30301;SDS011;17111;52.130;5.028;2023-04-24T03:12:14;2.95;;;2.03;;
30301;SDS011;17111;52.130;5.028;2023-04-24T03:14:40;2.78;;;1.90;;
30301;SDS011;17111;52.130;5.028;2023-04-24T03:17:07;3.08;;;1.92;;
30301;SDS011;17111;52.130;5.028;2023-04-24T03:19:33;2.20;;;1.63;;
30301;SDS011;17111;52.130;5.028;2023-04-24T03:22:01;2.50;;;1.88;;
30301;SDS011;17111;52.130;5.028;2023-04-24T03:24:29;2.47;;;1.60;;
30301;SDS011;17111;52.130;5.028;2023-04-24T03:26:56;2.30;;;1.70;;
30301;SDS011;17111;52.130;5.028;2023-04-24T03:29:23;3.05;;;1.92;;
30301;SDS011;17111;52.130;5.028;2023-04-24T03:31:49;3.58;;;1.95;;
30301;SDS011;17111;52.130;5.028;2023-04-24T03:34:16;2.55;;;1.88;;
30301;SDS011;17111;52.130;5.028;2023-04-24T03:36:43;2.55;;;1.90;;
30301;SDS011;17111;52.130;5.028;2023-04-24T03:39:09;3.47;;;1.90;;
30301;SDS011;17111;52.130;5.028;2023-04-24T03:41:36;2.45;;;1.58;;
30301;SDS011;17111;52.130;5.028;2023-04-24T03:44:02;2.50;;;1.90;;
30301;SDS011;17111;52.130;5.028;2023-04-24T03:46:29;2.78;;;1.55;;
30301;SDS011;17111;52.130;5.028;2023-04-24T03:48:56;3.40;;;1.73;;
30301;SDS011;17111;52.130;5.028;2023-04-24T03:51:22;2.70;;;1.70;;
30301;SDS011;17111;52.130;5.028;2023-04-24T03:53:49;3.05;;;2.13;;
30301;SDS011;17111;52.130;5.028;2023-04-24T03:56:16;3.03;;;2.00;;
30301;SDS011;17111;52.130;5.028;2023-04-24T03:58:42;2.47;;;1.60;;
30301;SDS011;17111;52.130;5.028;2023-04-24T04:01:09;2.75;;;1.60;;
30301;SDS011;17111;52.130;5.028;2023-04-24T04:03:37;2.42;;;1.77;;
30301;SDS011;17111;52.130;5.028;2023-04-24T04:06:04;2.58;;;1.60;;
30301;SDS011;17111;52.130;5.028;2023-04-24T04:08:31;2.38;;;1.60;;
30301;SDS011;17111;52.130;5.028;2023-04-24T04:10:57;2.70;;;1.73;;
30301;SDS011;17111;52.130;5.028;2023-04-24T04:13:24;1.48;;;1.33;;
30301;SDS011;17111;52.130;5.028;2023-04-24T04:15:51;2.22;;;1.65;;
30301;SDS011;17111;52.130;5.028;2023-04-24T04:18:17;2.05;;;1.33;;
30301;SDS011;17111;52.130;5.028;2023-04-24T04:20:44;2.22;;;1.60;;
30301;SDS011;17111;52.130;5.028;2023-04-24T04:23:10;1.92;;;1.63;;
30301;SDS011;17111;52.130;5.028;2023-04-24T04:25:37;2.88;;;1.50;;
30301;SDS011;17111;52.130;5.028;2023-04-24T04:28:03;2.85;;;1.65;;
30301;SDS011;17111;52.130;5.028;2023-04-24T04:30:30;1.77;;;1.38;;
30301;SDS011;17111;52.130;5.028;2023-04-24T04:32:58;3.85;;;1.40;;
30301;SDS011;17111;52.130;5.028;2023-04-24T04:35:25;2.50;;;1.63;;
30301;SDS011;17111;52.130;5.028;2023-04-24T04:37:52;2.45;;;1.40;;
30301;SDS011;17111;52.130;5.028;2023-04-24T04:40:18;2.58;;;1.70;;
30301;SDS011;17111;52.130;5.028;2023-04-24T04:42:45;2.15;;;1.42;;
30301;SDS011;17111;52.130;5.028;2023-04-24T04:45:12;2.28;;;1.42;;
30301;SDS011;17111;52.130;5.028;2023-04-24T04:47:38;2.35;;;1.60;;
30301;SDS011;17111;52.130;5.028;2023-04-24T04:50:05;2.13;;;1.40;;
30301;SDS011;17111;52.130;5.028;2023-04-24T04:52:32;1.90;;;1.10;;
30301;SDS011;17111;52.130;5.028;2023-04-24T04:54:59;2.55;;;1.50;;
30301;SDS011;17111;52.130;5.028;2023-04-24T04:57:26;2.92;;;1.90;;
30301;SDS011;17111;52.130;5.028;2023-04-24T04:59:52;2.42;;;1.73;;
30301;SDS011;17111;52.130;5.028;2023-04-24T05:02:19;2.25;;;1.60;;
30301;SDS011;17111;52.130;5.028;2023-04-24T05:04:46;3.03;;;2.10;;
30301;SDS011;17111;52.130;5.028;2023-04-24T05:07:13;3.08;;;1.98;;
30301;SDS011;17111;52.130;5.028;2023-04-24T05:09:40;3.88;;;2.30;;
30301;SDS011;17111;52.130;5.028;2023-04-24T05:12:07;3.85;;;2.28;;
30301;SDS011;17111;52.130;5.028;2023-04-24T05:14:34;2.38;;;1.67;;
30301;SDS011;17111;52.130;5.028;2023-04-24T05:17:00;5.07;;;1.83;;
30301;SDS011;17111;52.130;5.028;2023-04-24T05:19:27;2.40;;;1.67;;
30301;SDS011;17111;52.130;5.028;2023-04-24T05:21:53;3.08;;;2.05;;
30301;SDS011;17111;52.130;5.028;2023-04-24T05:24:20;2.95;;;1.85;;
30301;SDS011;17111;52.130;5.028;2023-04-24T05:26:47;2.47;;;1.77;;
30301;SDS011;17111;52.130;5.028;2023-04-24T05:29:13;2.67;;;1.90;;
30301;SDS011;17111;52.130;5.028;2023-04-24T05:31:40;2.33;;;1.75;;
30301;SDS011;17111;52.130;5.028;2023-04-24T05:34:07;3.53;;;2.00;;
30301;SDS011;17111;52.130;5.028;2023-04-24T05:36:33;2.97;;;1.90;;
30301;SDS011;17111;52.130;5.028;2023-04-24T05:39:00;2.40;;;1.65;;
30301;SDS011;17111;52.130;5.028;2023-04-24T05:41:27;2.65;;;1.73;;
30301;SDS011;17111;52.130;5.028;2023-04-24T05:43:53;3.58;;;2.10;;
30301;SDS011;17111;52.130;5.028;2023-04-24T05:46:20;2.58;;;1.85;;
30301;SDS011;17111;52.130;5.028;2023-04-24T05:48:46;3.78;;;2.60;;
30301;SDS011;17111;52.130;5.028;2023-04-24T05:51:13;2.92;;;2.08;;
30301;SDS011;17111;52.130;5.028;2023-04-24T05:53:39;3.78;;;2.13;;
30301;SDS011;17111;52.130;5.028;2023-04-24T05:56:06;3.83;;;2.05;;
30301;SDS011;17111;52.130;5.028;2023-04-24T05:58:32;3.05;;;2.17;;
30301;SDS011;17111;52.130;5.028;2023-04-24T06:00:59;2.67;;;2.00;;
30301;SDS011;17111;52.130;5.028;2023-04-24T06:03:27;3.20;;;2.20;;
30301;SDS011;17111;52.130;5.028;2023-04-24T06:05:54;3.78;;;2.33;;
30301;SDS011;17111;52.130;5.028;2023-04-24T06:08:21;4.05;;;2.75;;
30301;SDS011;17111;52.130;5.028;2023-04-24T06:10:47;4.32;;;2.55;;
30301;SDS011;17111;52.130;5.028;2023-04-24T06:13:14;4.22;;;3.10;;
30301;SDS011;17111;52.130;5.028;2023-04-24T06:15:40;4.05;;;2.70;;
30301;SDS011;17111;52.130;5.028;2023-04-24T06:18:07;4.53;;;3.20;;
30301;SDS011;17111;52.130;5.028;2023-04-24T06:20:36;4.15;;;2.40;;
30301;SDS011;17111;52.130;5.028;2023-04-24T06:23:02;4.20;;;2.45;;
30301;SDS011;17111;52.130;5.028;2023-04-24T06:25:29;4.97;;;2.90;;
30301;SDS011;17111;52.130;5.028;2023-04-24T06:27:55;4.72;;;3.05;;
30301;SDS011;17111;52.130;5.028;2023-04-24T06:30:23;5.10;;;3.03;;
30301;SDS011;17111;52.130;5.028;2023-04-24T06:32:50;5.13;;;2.97;;
30301;SDS011;17111;52.130;5.028;2023-04-24T06:35:17;5.00;;;2.85;;
30301;SDS011;17111;52.130;5.028;2023-04-24T06:37:43;4.75;;;2.88;;
30301;SDS011;17111;52.130;5.028;2023-04-24T06:40:10;4.20;;;2.65;;
30301;SDS011;17111;52.130;5.028;2023-04-24T06:42:36;4.13;;;2.53;;
30301;SDS011;17111;52.130;5.028;2023-04-24T06:45:03;5.70;;;3.50;;
30301;SDS011;17111;52.130;5.028;2023-04-24T06:47:31;5.75;;;2.78;;
30301;SDS011;17111;52.130;5.028;2023-04-24T06:49:58;4.93;;;2.92;;
30301;SDS011;17111;52.130;5.028;2023-04-24T06:52:24;6.57;;;2.97;;
30301;SDS011;17111;52.130;5.028;2023-04-24T06:54:51;7.30;;;3.45;;
30301;SDS011;17111;52.130;5.028;2023-04-24T06:57:18;4.43;;;2.83;;
30301;SDS011;17111;52.130;5.028;2023-04-24T06:59:46;5.28;;;3.20;;
30301;SDS011;17111;52.130;5.028;2023-04-24T07:02:12;4.70;;;2.95;;
30301;SDS011;17111;52.130;5.028;2023-04-24T07:04:39;5.05;;;3.22;;
30301;SDS011;17111;52.130;5.028;2023-04-24T07:07:06;4.63;;;2.78;;
30301;SDS011;17111;52.130;5.028;2023-04-24T07:09:33;5.95;;;2.80;;
30301;SDS011;17111;52.130;5.028;2023-04-24T07:12:01;3.72;;;2.80;;
30301;SDS011;17111;52.130;5.028;2023-04-24T07:14:28;5.22;;;3.15;;
30301;SDS011;17111;52.130;5.028;2023-04-24T07:16:54;5.80;;;2.95;;
30301;SDS011;17111;52.130;5.028;2023-04-24T07:19:21;7.70;;;3.60;;
30301;SDS011;17111;52.130;5.028;2023-04-24T07:21:47;3.53;;;2.47;;
30301;SDS011;17111;52.130;5.028;2023-04-24T07:24:14;6.32;;;2.83;;
30301;SDS011;17111;52.130;5.028;2023-04-24T07:26:40;4.10;;;2.45;;
30301;SDS011;17111;52.130;5.028;2023-04-24T07:29:07;5.82;;;3.05;;
30301;SDS011;17111;52.130;5.028;2023-04-24T07:31:34;4.63;;;2.90;;
30301;SDS011;17111;52.130;5.028;2023-04-24T07:34:01;6.78;;;2.92;;
30301;SDS011;17111;52.130;5.028;2023-04-24T07:36:27;6.90;;;3.50;;
30301;SDS011;17111;52.130;5.028;2023-04-24T07:38:54;5.72;;;2.85;;
30301;SDS011;17111;52.130;5.028;2023-04-24T07:41:22;8.60;;;3.25;;
30301;SDS011;17111;52.130;5.028;2023-04-24T07:43:50;4.88;;;2.83;;
30301;SDS011;17111;52.130;5.028;2023-04-24T07:46:17;7.20;;;2.78;;
30301;SDS011;17111;52.130;5.028;2023-04-24T07:48:44;7.32;;;2.88;;
30301;SDS011;17111;52.130;5.028;2023-04-24T07:51:10;6.35;;;3.25;;
30301;SDS011;17111;52.130;5.028;2023-04-24T07:53:39;7.32;;;3.05;;
30301;SDS011;17111;52.130;5.028;2023-04-24T07:56:06;5.13;;;2.65;;
30301;SDS011;17111;52.130;5.028;2023-04-24T07:58:33;6.75;;;3.20;;
30301;SDS011;17111;52.130;5.028;2023-04-24T08:01:00;5.32;;;2.70;;
30301;SDS011;17111;52.130;5.028;2023-04-24T08:03:27;4.65;;;2.45;;
30301;SDS011;17111;52.130;5.028;2023-04-24T08:05:54;5.32;;;2.22;;
30301;SDS011;17111;52.130;5.028;2023-04-24T08:08:21;6.28;;;2.53;;
30301;SDS011;17111;52.130;5.028;2023-04-24T08:10:49;6.50;;;2.42;;
30301;SDS011;17111;52.130;5.028;2023-04-24T08:13:16;9.15;;;2.58;;
30301;SDS011;17111;52.130;5.028;2023-04-24T08:15:43;6.38;;;2.72;;
30301;SDS011;17111;52.130;5.028;2023-04-24T08:18:09;6.43;;;2.65;;
30301;SDS011;17111;52.130;5.028;2023-04-24T08:20:38;8.52;;;2.60;;
30301;SDS011;17111;52.130;5.028;2023-04-24T08:23:05;5.55;;;2.67;;
30301;SDS011;17111;52.130;5.028;2023-04-24T08:25:31;7.38;;;2.97;;
30301;SDS011;17111;52.130;5.028;2023-04-24T08:27:58;9.32;;;3.10;;
30301;SDS011;17111;52.130;5.028;2023-04-24T08:30:24;6.80;;;2.55;;
30301;SDS011;17111;52.130;5.028;2023-04-24T08:32:51;7.00;;;2.78;;
30301;SDS011;17111;52.130;5.028;2023-04-24T08:35:18;8.05;;;2.85;;
30301;SDS011;17111;52.130;5.028;2023-04-24T08:37:44;6.18;;;3.00;;
30301;SDS011;17111;52.130;5.028;2023-04-24T08:40:14;5.97;;;2.45;;
30301;SDS011;17111;52.130;5.028;2023-04-24T08:42:42;10.18;;;2.40;;
30301;SDS011;17111;52.130;5.028;2023-04-24T08:45:11;7.13;;;2.58;;
30301;SDS011;17111;52.130;5.028;2023-04-24T08:47:39;5.40;;;2.40;;
30301;SDS011;17111;52.130;5.028;2023-04-24T08:50:07;4.47;;;2.30;;
30301;SDS011;17111;52.130;5.028;2023-04-24T08:52:34;6.65;;;2.50;;
30301;SDS011;17111;52.130;5.028;2023-04-24T08:55:01;9.50;;;2.30;;
30301;SDS011;17111;52.130;5.028;2023-04-24T08:57:28;6.78;;;2.45;;
30301;SDS011;17111;52.130;5.028;2023-04-24T08:59:57;7.97;;;1.98;;
30301;SDS011;17111;52.130;5.028;2023-04-24T09:02:24;6.50;;;2.20;;
30301;SDS011;17111;52.130;5.028;2023-04-24T09:04:52;5.68;;;2.85;;
30301;SDS011;17111;52.130;5.028;2023-04-24T09:07:19;9.10;;;2.00;;
30301;SDS011;17111;52.130;5.028;2023-04-24T09:09:48;9.07;;;2.72;;
30301;SDS011;17111;52.130;5.028;2023-04-24T09:12:17;6.85;;;2.58;;
30301;SDS011;17111;52.130;5.028;2023-04-24T09:14:45;7.45;;;2.50;;
30301;SDS011;17111;52.130;5.028;2023-04-24T09:17:12;6.68;;;2.85;;
30301;SDS011;17111;52.130;5.028;2023-04-24T09:19:39;7.80;;;2.55;;
30301;SDS011;17111;52.130;5.028;2023-04-24T09:22:07;9.40;;;2.35;;
30301;SDS011;17111;52.130;5.028;2023-04-24T09:24:34;10.57;;;2.85;;
30301;SDS011;17111;52.130;5.028;2023-04-24T09:27:01;6.60;;;2.38;;
30301;SDS011;17111;52.130;5.028;2023-04-24T09:29:28;4.47;;;2.10;;
30301;SDS011;17111;52.130;5.028;2023-04-24T09:31:55;4.35;;;2.03;;
30301;SDS011;17111;52.130;5.028;2023-04-24T09:34:22;6.65;;;2.22;;
30301;SDS011;17111;52.130;5.028;2023-04-24T09:36:50;7.57;;;1.80;;
30301;SDS011;17111;52.130;5.028;2023-04-24T09:39:17;8.82;;;2.40;;
30301;SDS011;17111;52.130;5.028;2023-04-24T09:41:50;7.55;;;2.05;;
30301;SDS011;17111;52.130;5.028;2023-04-24T09:44:18;4.93;;;2.00;;
30301;SDS011;17111;52.130;5.028;2023-04-24T09:46:58;5.20;;;2.28;;
30301;SDS011;17111;52.130;5.028;2023-04-24T09:49:26;5.55;;;1.75;;
30301;SDS011;17111;52.130;5.028;2023-04-24T09:52:04;7.50;;;1.80;;
30301;SDS011;17111;52.130;5.028;2023-04-24T09:54:32;6.95;;;2.35;;
30301;SDS011;17111;52.130;5.028;2023-04-24T09:56:59;4.00;;;1.80;;
30301;SDS011;17111;52.130;5.028;2023-04-24T09:59:26;5.38;;;2.30;;
30301;SDS011;17111;52.130;5.028;2023-04-24T10:01:54;5.68;;;1.95;;
30301;SDS011;17111;52.130;5.028;2023-04-24T10:04:22;3.50;;;1.70;;
30301;SDS011;17111;52.130;5.028;2023-04-24T10:06:51;5.90;;;2.08;;
30301;SDS011;17111;52.130;5.028;2023-04-24T10:09:19;5.35;;;1.75;;
30301;SDS011;17111;52.130;5.028;2023-04-24T10:11:49;5.47;;;1.60;;
30301;SDS011;17111;52.130;5.028;2023-04-24T10:14:18;4.28;;;2.13;;
30301;SDS011;17111;52.130;5.028;2023-04-24T10:16:49;7.00;;;1.95;;
30301;SDS011;17111;52.130;5.028;2023-04-24T10:19:18;4.65;;;2.05;;
30301;SDS011;17111;52.130;5.028;2023-04-24T10:21:45;5.95;;;2.13;;
30301;SDS011;17111;52.130;5.028;2023-04-24T10:24:15;4.55;;;1.90;;
30301;SDS011;17111;52.130;5.028;2023-04-24T10:26:43;6.70;;;1.83;;
30301;SDS011;17111;52.130;5.028;2023-04-24T10:29:12;5.68;;;1.52;;
30301;SDS011;17111;52.130;5.028;2023-04-24T10:31:41;5.50;;;1.55;;
30301;SDS011;17111;52.130;5.028;2023-04-24T10:34:09;6.13;;;1.65;;
30301;SDS011;17111;52.130;5.028;2023-04-24T10:36:37;3.45;;;1.50;;
30301;SDS011;17111;52.130;5.028;2023-04-24T10:39:08;3.53;;;1.27;;
30301;SDS011;17111;52.130;5.028;2023-04-24T10:41:37;6.38;;;1.80;;
30301;SDS011;17111;52.130;5.028;2023-04-24T10:46:35;5.55;;;1.30;;
30301;SDS011;17111;52.130;5.028;2023-04-24T10:49:05;3.35;;;1.45;;
30301;SDS011;17111;52.130;5.028;2023-04-24T10:51:49;3.38;;;1.08;;
30301;SDS011;17111;52.130;5.028;2023-04-24T10:54:33;4.80;;;1.23;;
30301;SDS011;17111;52.130;5.028;2023-04-24T10:59:45;3.28;;;1.38;;
30301;SDS011;17111;52.130;5.028;2023-04-24T11:02:16;2.85;;;1.50;;
30301;SDS011;17111;52.130;5.028;2023-04-24T11:04:44;3.00;;;1.17;;
30301;SDS011;17111;52.130;5.028;2023-04-24T11:07:13;4.10;;;1.60;;
30301;SDS011;17111;52.130;5.028;2023-04-24T11:09:40;5.00;;;1.55;;
30301;SDS011;17111;52.130;5.028;2023-04-24T11:12:10;2.47;;;1.10;;
30301;SDS011;17111;52.130;5.028;2023-04-24T11:17:33;3.95;;;1.55;;
30301;SDS011;17111;52.130;5.028;2023-04-24T11:20:01;6.53;;;1.17;;
30301;SDS011;17111;52.130;5.028;2023-04-24T11:22:53;4.03;;;1.20;;
30301;SDS011;17111;52.130;5.028;2023-04-24T11:25:21;3.55;;;0.90;;
30301;SDS011;17111;52.130;5.028;2023-04-24T11:27:49;3.65;;;1.17;;
30301;SDS011;17111;52.130;5.028;2023-04-24T11:30:17;4.47;;;1.27;;
30301;SDS011;17111;52.130;5.028;2023-04-24T11:32:50;4.38;;;1.15;;
30301;SDS011;17111;52.130;5.028;2023-04-24T11:35:18;3.58;;;1.30;;
30301;SDS011;17111;52.130;5.028;2023-04-24T11:40:38;7.88;;;1.30;;
30301;SDS011;17111;52.130;5.028;2023-04-24T11:43:06;3.90;;;1.15;;
30301;SDS011;17111;52.130;5.028;2023-04-24T11:45:33;5.22;;;1.38;;
30301;SDS011;17111;52.130;5.028;2023-04-24T11:48:00;4.82;;;1.00;;
30301;SDS011;17111;52.130;5.028;2023-04-24T11:50:29;2.53;;;1.25;;
30301;SDS011;17111;52.130;5.028;2023-04-24T11:52:56;2.03;;;0.90;;
30301;SDS011;17111;52.130;5.028;2023-04-24T11:55:27;3.15;;;1.10;;
30301;SDS011;17111;52.130;5.028;2023-04-24T11:57:58;2.90;;;0.88;;
30301;SDS011;17111;52.130;5.028;2023-04-24T12:00:29;2.05;;;1.10;;
30301;SDS011;17111;52.130;5.028;2023-04-24T12:03:07;4.68;;;1.42;;
30301;SDS011;17111;52.130;5.028;2023-04-24T12:05:38;1.85;;;0.90;;
30301;SDS011;17111;52.130;5.028;2023-04-24T12:08:05;6.53;;;1.08;;
30301;SDS011;17111;52.130;5.028;2023-04-24T12:10:33;2.83;;;1.02;;
30301;SDS011;17111;52.130;5.028;2023-04-24T12:13:01;3.88;;;1.33;;
30301;SDS011;17111;52.130;5.028;2023-04-24T12:15:28;2.72;;;1.27;;
30301;SDS011;17111;52.130;5.028;2023-04-24T12:17:55;2.40;;;1.02;;
30301;SDS011;17111;52.130;5.028;2023-04-24T12:20:29;2.25;;;0.88;;
30301;SDS011;17111;52.130;5.028;2023-04-24T12:22:58;5.22;;;1.00;;
30301;SDS011;17111;52.130;5.028;2023-04-24T12:25:26;2.85;;;0.95;;
30301;SDS011;17111;52.130;5.028;2023-04-24T12:30:30;2.47;;;1.05;;
30301;SDS011;17111;52.130;5.028;2023-04-24T12:32:58;3.42;;;1.00;;
30301;SDS011;17111;52.130;5.028;2023-04-24T12:35:27;2.55;;;0.98;;
30301;SDS011;17111;52.130;5.028;2023-04-24T12:37:55;3.28;;;1.15;;
30301;SDS011;17111;52.130;5.028;2023-04-24T12:40:22;3.08;;;0.85;;
30301;SDS011;17111;52.130;5.028;2023-04-24T12:42:51;2.60;;;1.00;;
30301;SDS011;17111;52.130;5.028;2023-04-24T12:45:18;4.38;;;1.10;;
30301;SDS011;17111;52.130;5.028;2023-04-24T12:47:45;1.83;;;1.02;;
30301;SDS011;17111;52.130;5.028;2023-04-24T12:50:13;3.08;;;0.82;;
30301;SDS011;17111;52.130;5.028;2023-04-24T12:52:40;2.95;;;1.10;;
30301;SDS011;17111;52.130;5.028;2023-04-24T12:55:08;1.60;;;0.70;;
30301;SDS011;17111;52.130;5.028;2023-04-24T12:57:36;2.35;;;0.85;;
30301;SDS011;17111;52.130;5.028;2023-04-24T13:00:05;4.47;;;0.90;;
30301;SDS011;17111;52.130;5.028;2023-04-24T13:02:33;3.28;;;0.80;;
30301;SDS011;17111;52.130;5.028;2023-04-24T13:05:01;1.42;;;0.82;;
30301;SDS011;17111;52.130;5.028;2023-04-24T13:07:28;1.83;;;0.80;;
30301;SDS011;17111;52.130;5.028;2023-04-24T13:09:55;2.40;;;1.08;;
30301;SDS011;17111;52.130;5.028;2023-04-24T13:12:22;3.97;;;1.17;;
30301;SDS011;17111;52.130;5.028;2023-04-24T13:14:53;2.00;;;0.82;;
30301;SDS011;17111;52.130;5.028;2023-04-24T13:17:19;4.47;;;1.58;;
30301;SDS011;17111;52.130;5.028;2023-04-24T13:19:46;7.47;;;1.60;;
30301;SDS011;17111;52.130;5.028;2023-04-24T13:22:15;4.20;;;1.50;;
30301;SDS011;17111;52.130;5.028;2023-04-24T13:24:43;3.70;;;1.60;;
30301;SDS011;17111;52.130;5.028;2023-04-24T13:27:09;3.55;;;1.40;;
30301;SDS011;17111;52.130;5.028;2023-04-24T13:29:36;2.42;;;1.30;;
30301;SDS011;17111;52.130;5.028;2023-04-24T13:32:03;2.50;;;0.85;;
30301;SDS011;17111;52.130;5.028;2023-04-24T13:34:30;1.88;;;1.05;;
30301;SDS011;17111;52.130;5.028;2023-04-24T13:36:57;3.90;;;1.17;;
30301;SDS011;17111;52.130;5.028;2023-04-24T13:39:24;5.28;;;1.23;;
30301;SDS011;17111;52.130;5.028;2023-04-24T13:41:52;7.35;;;1.20;;
30301;SDS011;17111;52.130;5.028;2023-04-24T13:44:19;3.17;;;1.38;;
30301;SDS011;17111;52.130;5.028;2023-04-24T13:46:48;2.72;;;1.02;;
30301;SDS011;17111;52.130;5.028;2023-04-24T13:49:16;3.78;;;1.00;;
30301;SDS011;17111;52.130;5.028;2023-04-24T13:51:42;6.65;;;1.77;;
30301;SDS011;17111;52.130;5.028;2023-04-24T13:54:09;7.18;;;1.45;;
30301;SDS011;17111;52.130;5.028;2023-04-24T13:56:35;4.57;;;1.25;;
30301;SDS011;17111;52.130;5.028;2023-04-24T13:59:02;4.13;;;1.73;;
30301;SDS011;17111;52.130;5.028;2023-04-24T14:01:29;4.28;;;1.05;;
30301;SDS011;17111;52.130;5.028;2023-04-24T14:03:55;3.22;;;1.50;;
30301;SDS011;17111;52.130;5.028;2023-04-24T14:06:23;7.82;;;2.33;;
30301;SDS011;17111;52.130;5.028;2023-04-24T14:08:50;2.95;;;1.20;;
30301;SDS011;17111;52.130;5.028;2023-04-24T14:11:17;4.22;;;1.30;;
30301;SDS011;17111;52.130;5.028;2023-04-24T14:13:44;6.03;;;1.33;;
30301;SDS011;17111;52.130;5.028;2023-04-24T14:16:12;5.45;;;1.88;;
30301;SDS011;17111;52.130;5.028;2023-04-24T14:18:39;4.78;;;1.52;;
30301;SDS011;17111;52.130;5.028;2023-04-24T14:21:06;4.47;;;1.75;;
30301;SDS011;17111;52.130;5.028;2023-04-24T14:23:32;5.40;;;1.83;;
30301;SDS011;17111;52.130;5.028;2023-04-24T14:25:59;2.85;;;1.40;;
30301;SDS011;17111;52.130;5.028;2023-04-24T14:28:26;8.52;;;1.55;;
30301;SDS011;17111;52.130;5.028;2023-04-24T14:30:53;3.78;;;1.30;;
30301;SDS011;17111;52.130;5.028;2023-04-24T14:33:19;6.03;;;1.48;;
30301;SDS011;17111;52.130;5.028;2023-04-24T14:35:46;4.75;;;1.55;;
30301;SDS011;17111;52.130;5.028;2023-04-24T14:38:13;5.18;;;1.73;;
30301;SDS011;17111;52.130;5.028;2023-04-24T14:40:41;5.95;;;1.40;;
30301;SDS011;17111;52.130;5.028;2023-04-24T14:43:11;5.63;;;1.50;;
30301;SDS011;17111;52.130;5.028;2023-04-24T14:45:37;3.90;;;1.77;;
30301;SDS011;17111;52.130;5.028;2023-04-24T14:48:04;5.28;;;2.00;;
30301;SDS011;17111;52.130;5.028;2023-04-24T14:50:31;6.95;;;2.50;;
30301;SDS011;17111;52.130;5.028;2023-04-24T14:52:58;6.78;;;3.05;;
30301;SDS011;17111;52.130;5.028;2023-04-24T14:55:25;5.93;;;3.17;;
30301;SDS011;17111;52.130;5.028;2023-04-24T14:57:52;6.13;;;3.00;;
30301;SDS011;17111;52.130;5.028;2023-04-24T15:00:19;6.32;;;3.22;;
30301;SDS011;17111;52.130;5.028;2023-04-24T15:02:46;8.27;;;3.30;;